METAR Data
IDs: Format: Raw Decoded Include TAF

Data at: 0232 UTC 25 Jan 2020

PAFA 250153Z 34005KT 10SM -SN FEW025 BKN046 OVC065 M18/M23 A2980 RMK AO2 SLP107 T11831228
PAFA 250053Z 35005KT 10SM -SN FEW020 BKN046 OVC065 M18/M23 A2979 RMK AO2 SLP103 T11781228
PAFA 242353Z 36007KT 6SM -SN BR FEW020 BKN040 OVC055 M18/M22 A2978 RMK AO2 SLP100 T11781222 11172 21211 58001
PAFA 242253Z 01008KT 3SM -SN BR SCT020 BKN033 OVC050 M17/M22 A2978 RMK AO2 SLP100 T11721217
PAFA 242153Z 36008KT 4SM -SN BR SCT020 BKN040 OVC055 M18/M22 A2978 RMK AO2 SLP101 T11781217
PAFA 242053Z 35006KT 2SM -SN BR SCT022 BKN038 OVC050 M18/M22 A2978 RMK AO2 TWR VIS 3 SLP101 T11781217 57001
PAFA 241953Z 00000KT 3SM -SN BR SCT022 OVC038 M21/M24 A2978 RMK AO2 SLP102 T12111244
PAFA 241853Z 00000KT 6SM -SN BR SCT020 BKN038 OVC055 M21/M24 A2978 RMK AO2 SLP102 T12111244
PAFA 241753Z 21003KT 7SM -SN SCT025 BKN036 OVC055 M21/M25 A2978 RMK AO2 SLP103 T12111250 11211 21222 56005
PAFA 241653Z 00000KT 6SM -SN BR BKN025 OVC033 M22/M25 A2979 RMK AO2 SLP105 T12171250
PAFA 241629Z 00000KT 3SM -SN BR BKN020 OVC030 M22/M25 A2979 RMK AO2 SFC VIS 6 T12171250
PAFA 241601Z 25003KT 2 1/2SM -SN BR BKN020 OVC030 M22/M26 A2979 RMK AO2 T12171256
PAFA 241553Z 00000KT 3SM -SN BR BKN025 OVC035 M22/M26 A2979 RMK AO2 SLP106 T12171256
PAFA 241453Z 00000KT 5SM -SN BR SCT030 OVC040 M22/M26 A2980 RMK AO2 SLP108 T12221256 58006
PAFA 241353Z 00000KT 5SM -SN BR SCT030 OVC040 M22/M26 A2981 RMK AO2 SLP111 T12221256
PAFA 241253Z 00000KT 5SM -SN BR SCT035 OVC050 M22/M26 A2981 RMK AO2 SLP113 T12221261
PAFA 241153Z 00000KT 3SM -SN BR SCT035 OVC050 M22/M26 A2982 RMK AO2 SLP114 T12221261 11222 21233 58003
PAFA 241053Z 00000KT 3SM -SN BR SCT035 OVC050 M22/M26 A2982 RMK AO2 SLP115 T12221261
PAFA 240953Z 00000KT 3SM -SN BR BKN030 OVC040 M22/M26 A2983 RMK AO2 SLP118 T12221261
PAFA 240853Z 01003KT 3SM -SN BR BKN035 OVC050 M22/M26 A2983 RMK AO2 SLP117 T12221261 412221261 53002
PAFA 240753Z 00000KT 3SM -SN BR BKN035 OVC050 M23/M27 A2982 RMK AO2 SLP115 T12281267
PAFA 240715Z 00000KT 4SM -SN BR SCT033 BKN041 OVC055 M23/M27 A2981 RMK AO2 T12281267
PAFA 240653Z 00000KT 2 1/2SM -SN BR BKN033 BKN041 OVC055 M23/M27 A2982 RMK AO2 SLP115 T12281267
PAFA 240614Z 03003KT 2SM -SN BR SCT024 BKN035 OVC045 M23/M27 A2982 RMK AO2 SFC VIS 2 1/2 T12281267
PAFA 240553Z 00000KT 2SM -SN BR BKN024 BKN030 OVC045 M23/M27 A2982 RMK AO2 SLP115 T12281272 11228 21250 58002
PAFA 240541Z 00000KT 1 3/4SM -SN BR OVC028 M23/M27 A2982 RMK AO2 T12331272
PAFA 240539Z 00000KT 1 3/4SM -SN BR BKN035 OVC050 M23/M27 A2982 RMK AO2 T12331272
PAFA 240453Z 00000KT 5SM -SN BR SCT035 BKN050 OVC070 M24/M28 A2982 RMK AO2 SLP117 T12391283
PAFA 240353Z 00000KT 6SM -SN BR SCT035 BKN050 OVC100 M25/M29 A2983 RMK AO2 SLP119 T12501289
PAFA 240253Z 00000KT 5SM -SN BR BKN035 OVC050 M24/M28 A2983 RMK AO2 SLP118 T12391278 56006
PAFA 240153Z 00000KT 4SM -SN BR FEW025 BKN050 OVC075 M23/M27 A2984 RMK AO2 SLP121 T12331272
PAFA 240053Z 00000KT 4SM -SN BR SCT023 BKN040 OVC075 M23/M27 A2983 RMK AO2 SLP121 T12331272
PAFA 232353Z 00000KT 4SM -SN BR SCT023 BKN038 OVC065 M24/M28 A2984 RMK AO2 SLP124 T12391278 11233 21261 55001
PAFA 232253Z 00000KT 5SM -SN BR SCT028 BKN050 BKN070 M24/M28 A2984 RMK AO2 SLP123 T12391278
PAFA 232153Z 00000KT 5SM -SN BR FEW020 BKN030 BKN070 M25/M29 A2985 RMK AO2 SLP126 T12501289
PAFA 232053Z 00000KT 8SM -SN FEW020 BKN033 BKN070 M26/M29 A2985 RMK AO2 SLP126 T12561294 53006
PAFA 231953Z 00000KT 7SM -SN SCT020 BKN045 BKN070 M24/M28 A2984 RMK AO2 SLP122 T12441283
PAFA 231853Z 00000KT 4SM -SN BR SCT020 BKN035 OVC050 M23/M28 A2982 RMK AO2 SLP116 T12331278
PAFA 231753Z 00000KT 3SM -SN BR SCT020 BKN030 OVC045 M24/M28 A2983 RMK AO2 SLP119 T12391278 11228 21244 53005
PAFA 231653Z 00000KT 3SM -SN BR BKN020 OVC030 M24/M28 A2981 RMK AO2 SLP114 T12391278
PAFA 231553Z 00000KT 4SM -SN BR BKN025 OVC035 M24/M28 A2982 RMK AO2 SLP116 T12391278
PAFA 231453Z 00000KT 6SM -SN BR BKN040 OVC065 M23/M27 A2981 RMK AO2 SLP113 T12331272 58003